Time;durP1;ratioP1;P1;durP2;ratioP2;P2;SDS_P1;SDS_P2;PMS_P1;PMS_P2;Temp;Humidity;BMP_temperature;BMP_pressure;BME280_temperature;BME280_humidity;BME280_pressure;Samples;Min_cycle;Max_cycle;Signal;HPM_P1;HPM_P2
2022/01/28 00:00:34;;;;;;;36.03;29.27;;;4.50;99.90;;;;;;5087466;28;20465;-70
2022/01/28 00:03:05;;;;;;;32.90;29.37;;;4.40;99.90;;;;;;5097720;28;20461;-71
2022/01/28 00:05:34;;;;;;;32.53;28.17;;;4.50;99.90;;;;;;5100558;28;20449;-70
2022/01/28 00:08:02;;;;;;;32.23;29.03;;;4.40;99.90;;;;;;5088505;28;21030;-70
2022/01/28 00:10:29;;;;;;;32.33;29.30;;;4.40;99.90;;;;;;5092590;28;20491;-72
2022/01/28 00:16:01;;;;;;;33.47;30.20;;;4.20;99.90;;;;;;5102178;28;20453;-71
2022/01/28 00:18:47;;;;;;;33.27;30.23;;;4.20;99.90;;;;;;5096992;28;20472;-70
2022/01/28 00:38:06;;;;;;;32.50;29.80;;;4.00;99.90;;;;;;5100493;28;20465;-72
2022/01/28 00:40:34;;;;;;;33.17;29.73;;;4.00;99.90;;;;;;5098025;28;20458;-71
2022/01/28 00:43:03;;;;;;;35.47;29.90;;;4.00;99.90;;;;;;5098779;28;21134;-71
2022/01/28 00:45:30;;;;;;;36.03;29.37;;;4.00;99.90;;;;;;5096180;28;20468;-71
2022/01/28 00:47:57;;;;;;;33.70;30.20;;;4.00;99.90;;;;;;5096406;28;20488;-71
2022/01/28 00:50:25;;;;;;;30.83;27.73;;;4.00;99.90;;;;;;5100133;28;20468;-70
2022/01/28 00:52:53;;;;;;;32.97;29.10;;;4.10;99.90;;;;;;5098699;28;20934;-70
2022/01/28 00:55:20;;;;;;;33.63;30.27;;;4.10;99.90;;;;;;5100021;28;20465;-71
2022/01/28 00:57:46;;;;;;;32.83;29.70;;;4.00;99.90;;;;;;5098255;28;20824;-71
2022/01/28 01:00:14;;;;;;;43.23;31.60;;;3.90;99.90;;;;;;5102417;28;20464;-70
2022/01/28 01:02:41;;;;;;;34.93;31.20;;;3.90;99.90;;;;;;5100138;28;20464;-71
2022/01/28 01:05:09;;;;;;;35.40;31.83;;;3.80;99.90;;;;;;5098895;28;20963;-71
2022/01/28 01:07:37;;;;;;;35.80;32.50;;;3.80;99.90;;;;;;5097422;28;20850;-70
2022/01/28 01:10:07;;;;;;;34.70;31.40;;;3.70;99.90;;;;;;5101726;28;20784;-71
2022/01/28 01:12:39;;;;;;;34.67;31.07;;;3.70;99.90;;;;;;5101633;28;20456;-70
2022/01/28 01:15:08;;;;;;;32.73;29.80;;;3.70;99.90;;;;;;5077239;28;20462;-70
2022/01/28 01:17:38;;;;;;;32.93;30.33;;;3.70;99.90;;;;;;5079022;28;20561;-71
2022/01/28 01:20:30;;;;;;;35.20;31.63;;;3.70;99.90;;;;;;5076271;28;20969;-71
2022/01/28 01:23:07;;;;;;;34.30;30.83;;;3.70;99.90;;;;;;5076198;28;20948;-70
2022/01/28 01:25:44;;;;;;;34.47;31.37;;;3.60;99.90;;;;;;5076973;28;20472;-71
2022/01/28 01:28:11;;;;;;;38.77;31.87;;;3.60;99.90;;;;;;5081838;28;20478;-70
2022/01/28 01:30:41;;;;;;;38.13;31.47;;;3.60;99.90;;;;;;5085845;28;20461;-70
2022/01/28 01:33:08;;;;;;;34.67;31.13;;;3.50;99.90;;;;;;5079761;28;20825;-70
2022/01/28 01:35:35;;;;;;;35.97;32.30;;;3.50;99.90;;;;;;5078647;28;20466;-71
2022/01/28 01:38:05;;;;;;;44.70;31.87;;;3.50;99.90;;;;;;5081188;28;20462;-70
2022/01/28 01:40:36;;;;;;;34.63;30.97;;;3.40;99.90;;;;;;5077077;28;20561;-71
2022/01/28 01:43:11;;;;;;;37.03;33.23;;;3.30;99.90;;;;;;5083012;28;20721;-70
2022/01/28 01:46:08;;;;;;;34.43;31.37;;;3.20;99.90;;;;;;5079952;28;20458;-71
2022/01/28 01:54:05;;;;;;;36.03;31.53;;;3.00;99.90;;;;;;5077240;28;20526;-71
2022/01/28 01:56:34;;;;;;;34.10;30.60;;;3.00;99.90;;;;;;5076331;28;20455;-69
2022/01/28 01:59:02;;;;;;;38.57;32.47;;;2.90;99.90;;;;;;5071347;28;20474;-69
2022/01/28 02:01:30;;;;;;;33.90;31.23;;;3.00;99.90;;;;;;5080358;28;20493;-70
2022/01/28 02:03:57;;;;;;;35.00;31.40;;;3.00;99.90;;;;;;5079846;28;20467;-70
2022/01/28 02:06:24;;;;;;;48.73;32.40;;;3.10;99.90;;;;;;5079174;28;20485;-70
2022/01/28 02:08:52;;;;;;;36.20;32.77;;;3.10;99.90;;;;;;5079934;28;20769;-72
2022/01/28 02:11:19;;;;;;;36.13;33.13;;;3.10;99.90;;;;;;5078306;28;20489;-71
2022/01/28 02:13:49;;;;;;;41.60;33.23;;;3.10;99.90;;;;;;5089718;28;21269;-71
2022/01/28 02:16:18;;;;;;;37.23;34.00;;;3.20;99.90;;;;;;5100039;28;20461;-70
2022/01/28 02:18:46;;;;;;;34.97;31.17;;;3.20;99.90;;;;;;5095302;28;20453;-69
2022/01/28 02:21:16;;;;;;;33.93;30.90;;;3.30;99.90;;;;;;5098221;28;20943;-69
2022/01/28 02:23:47;;;;;;;34.07;30.70;;;3.30;99.90;;;;;;5096376;28;20469;-70
2022/01/28 02:26:16;;;;;;;34.23;30.90;;;3.30;99.90;;;;;;5099804;28;20462;-71
2022/01/28 02:28:46;;;;;;;33.67;30.43;;;3.30;99.90;;;;;;5097726;28;20484;-69
2022/01/28 02:31:18;;;;;;;34.10;30.60;;;3.30;99.90;;;;;;5092382;28;20462;-71
2022/01/28 02:33:46;;;;;;;34.77;31.13;;;3.40;99.90;;;;;;5095707;28;20998;-72
2022/01/28 02:36:15;;;;;;;36.10;31.90;;;3.40;99.90;;;;;;5099064;28;20476;-70
2022/01/28 02:38:43;;;;;;;34.50;31.10;;;3.40;99.90;;;;;;5094184;28;20818;-70
2022/01/28 02:41:10;;;;;;;37.03;31.43;;;3.40;99.90;;;;;;5099437;28;20876;-71
2022/01/28 02:43:41;;;;;;;34.77;31.23;;;3.50;99.90;;;;;;5093440;28;20556;-71
2022/01/28 02:46:11;;;;;;;35.03;31.77;;;3.50;99.90;;;;;;5101989;28;20829;-69
2022/01/28 02:48:42;;;;;;;35.43;32.03;;;3.50;99.90;;;;;;5094693;28;20480;-70
2022/01/28 02:51:14;;;;;;;35.67;32.20;;;3.40;99.90;;;;;;5096634;28;20462;-69
2022/01/28 02:53:47;;;;;;;35.57;31.93;;;3.50;99.90;;;;;;5101194;28;20466;-71
2022/01/28 02:56:19;;;;;;;36.03;32.50;;;3.50;99.90;;;;;;5093689;28;20538;-71
2022/01/28 02:58:47;;;;;;;33.83;30.93;;;3.50;99.90;;;;;;5094230;28;20535;-71
2022/01/28 03:01:16;;;;;;;36.10;32.13;;;3.50;99.90;;;;;;5100801;28;20459;-71
2022/01/28 03:03:44;;;;;;;34.87;31.57;;;3.50;99.90;;;;;;5097156;28;20576;-71
2022/01/28 03:06:11;;;;;;;36.77;33.27;;;3.30;99.90;;;;;;5095021;28;20504;-71
2022/01/28 03:08:42;;;;;;;38.03;34.60;;;3.30;99.90;;;;;;5099992;28;20457;-70
2022/01/28 03:11:31;;;;;;;36.60;32.93;;;3.20;99.90;;;;;;5098301;28;20468;-71
2022/01/28 03:14:13;;;;;;;48.20;34.23;;;3.20;99.90;;;;;;5091779;28;20485;-71
2022/01/28 03:16:58;;;;;;;35.23;31.60;;;3.20;99.90;;;;;;5101880;28;20453;-69
2022/01/28 03:19:29;;;;;;;36.20;32.70;;;3.30;99.90;;;;;;5092736;28;20449;-71
2022/01/28 03:22:00;;;;;;;34.77;31.67;;;3.30;99.90;;;;;;5096862;28;21026;-70
2022/01/28 03:24:29;;;;;;;35.87;32.50;;;3.20;99.90;;;;;;5094672;28;20453;-70
2022/01/28 03:27:02;;;;;;;35.00;31.70;;;3.20;99.90;;;;;;5092105;28;20457;-70
2022/01/28 03:29:29;;;;;;;37.27;33.47;;;3.20;99.90;;;;;;5090167;28;21234;-71
2022/01/28 03:31:56;;;;;;;37.23;33.53;;;3.20;99.90;;;;;;5101527;27;20473;-70
2022/01/28 03:34:23;;;;;;;45.73;32.97;;;3.10;99.90;;;;;;5098893;28;20465;-69
2022/01/28 03:36:51;;;;;;;38.73;35.27;;;3.10;99.90;;;;;;5093414;28;20465;-71
2022/01/28 03:39:18;;;;;;;36.67;32.43;;;3.10;99.90;;;;;;5090809;28;20515;-70
2022/01/28 03:41:45;;;;;;;35.70;32.80;;;3.10;99.90;;;;;;5097173;28;20468;-70
2022/01/28 03:44:13;;;;;;;35.47;31.60;;;3.10;99.90;;;;;;5096800;28;20583;-71
2022/01/28 03:46:40;;;;;;;40.03;34.10;;;3.00;99.90;;;;;;5099511;28;20807;-70
2022/01/28 03:49:09;;;;;;;38.80;34.90;;;3.00;99.90;;;;;;5099001;28;20489;-71
2022/01/28 03:51:35;;;;;;;36.37;33.17;;;3.00;99.90;;;;;;5098649;28;20461;-71
2022/01/28 03:54:02;;;;;;;36.57;33.23;;;2.90;99.90;;;;;;5096155;28;20457;-69
2022/01/28 03:56:29;;;;;;;36.33;33.13;;;2.80;99.90;;;;;;5097493;28;20471;-70
2022/01/28 03:58:56;;;;;;;44.10;35.50;;;2.70;99.90;;;;;;5092135;28;20843;-70
2022/01/28 04:01:29;;;;;;;37.47;33.90;;;2.70;99.90;;;;;;5093816;28;20469;-71
2022/01/28 04:04:42;;;;;;;38.60;34.80;;;2.60;99.90;;;;;;5099895;28;20554;-71
2022/01/28 04:12:26;;;;;;;42.90;35.60;;;2.40;99.90;;;;;;5093811;28;20471;-71
2022/01/28 04:15:18;;;;;;;37.60;34.00;;;2.50;99.90;;;;;;5092297;28;20489;-71
2022/01/28 04:17:46;;;;;;;35.87;32.60;;;2.50;99.90;;;;;;5091860;28;20900;-69
2022/01/28 04:20:13;;;;;;;37.47;33.73;;;2.50;99.90;;;;;;5096370;28;20465;-71
2022/01/28 04:22:40;;;;;;;36.43;33.50;;;2.50;99.90;;;;;;5099138;28;20466;-70
2022/01/28 04:25:08;;;;;;;38.70;35.27;;;2.40;99.90;;;;;;5102683;28;20457;-71
2022/01/28 04:27:35;;;;;;;39.00;35.47;;;2.20;99.90;;;;;;5099184;28;20464;-70
2022/01/28 04:30:02;;;;;;;39.63;36.43;;;2.10;99.90;;;;;;5094670;28;20489;-71
2022/01/28 04:32:30;;;;;;;39.53;35.93;;;2.00;99.90;;;;;;5093427;28;20502;-71
2022/01/28 04:34:59;;;;;;;38.23;34.97;;;2.10;99.90;;;;;;5091741;28;20582;-71
2022/01/28 04:37:32;;;;;;;39.87;35.50;;;2.00;99.90;;;;;;5099922;28;20889;-69
2022/01/28 04:40:06;;;;;;;39.47;36.00;;;2.00;99.90;;;;;;5095285;28;20550;-70
2022/01/28 04:42:55;;;;;;;39.73;36.53;;;2.00;99.90;;;;;;5093375;28;20460;-72
2022/01/28 04:45:29;;;;;;;40.37;36.77;;;2.00;99.90;;;;;;5093611;28;20503;-71
2022/01/28 04:48:06;;;;;;;42.17;37.53;;;2.00;99.90;;;;;;5086915;28;20457;-70
2022/01/28 04:50:43;;;;;;;42.10;34.50;;;2.20;99.90;;;;;;5096041;28;20553;-70
2022/01/28 04:53:23;;;;;;;37.60;34.73;;;2.40;99.90;;;;;;5090151;28;20496;-69
2022/01/28 04:56:17;;;;;;;39.37;36.00;;;2.50;99.90;;;;;;5101728;28;20458;-71
2022/01/28 04:58:59;;;;;;;39.67;36.07;;;2.60;99.90;;;;;;5097589;28;20571;-69
2022/01/28 05:01:49;;;;;;;38.77;35.03;;;2.60;99.90;;;;;;5097310;28;20476;-70
2022/01/28 05:04:38;;;;;;;41.17;36.17;;;2.50;99.90;;;;;;5083958;28;20788;-72
2022/01/28 05:13:14;;;;;;;40.53;36.50;;;2.50;99.90;;;;;;5068341;28;20472;-69
2022/01/28 05:16:16;;;;;;;38.10;34.90;;;2.40;99.90;;;;;;5068775;28;20458;-70
2022/01/28 05:26:59;;;;;;;39.70;36.40;;;2.00;99.90;;;;;;5058507;28;20482;-70
2022/01/28 05:29:26;;;;;;;41.87;37.73;;;2.10;99.90;;;;;;5066374;28;20537;-71
2022/01/28 05:31:52;;;;;;;40.03;36.30;;;2.10;99.90;;;;;;5066358;28;20460;-71
2022/01/28 05:34:23;;;;;;;40.80;37.17;;;2.00;99.90;;;;;;5069245;28;20472;-71
2022/01/28 05:36:50;;;;;;;42.20;37.80;;;2.00;99.90;;;;;;5066023;28;20453;-71
2022/01/28 05:39:18;;;;;;;41.07;37.47;;;1.90;99.90;;;;;;5066989;28;20470;-71
2022/01/28 05:41:45;;;;;;;40.63;37.00;;;1.80;99.90;;;;;;5071161;28;20472;-71
2022/01/28 05:44:12;;;;;;;41.47;37.47;;;1.90;99.90;;;;;;5068237;28;20465;-71
2022/01/28 05:46:39;;;;;;;42.00;37.63;;;2.00;99.90;;;;;;5067778;28;20478;-70
2022/01/28 05:49:06;;;;;;;40.47;36.57;;;2.00;99.90;;;;;;5065305;28;21466;-71
2022/01/28 05:51:33;;;;;;;44.50;37.13;;;2.10;99.90;;;;;;5067133;28;20540;-69
2022/01/28 05:54:00;;;;;;;40.07;36.20;;;2.20;99.90;;;;;;5067844;28;20477;-69
2022/01/28 05:56:29;;;;;;;42.20;38.20;;;2.20;99.90;;;;;;5065902;28;20468;-70
2022/01/28 05:58:56;;;;;;;38.60;35.57;;;2.20;99.90;;;;;;5066735;28;20476;-71
2022/01/28 06:01:23;;;;;;;40.63;37.10;;;2.30;99.90;;;;;;5066780;28;20472;-69
2022/01/28 06:03:49;;;;;;;41.63;36.63;;;2.40;99.90;;;;;;5068441;28;20453;-71
2022/01/28 06:06:20;;;;;;;39.20;35.50;;;2.40;99.90;;;;;;5066052;28;20573;-69
2022/01/28 06:08:47;;;;;;;38.70;35.30;;;2.40;99.90;;;;;;5067148;28;20468;-70
2022/01/28 06:11:14;;;;;;;39.87;36.40;;;2.40;99.90;;;;;;5067087;28;20501;-69
2022/01/28 06:13:42;;;;;;;40.00;35.87;;;2.50;99.90;;;;;;5067908;28;20546;-70
2022/01/28 06:16:09;;;;;;;39.43;35.63;;;2.50;99.90;;;;;;5067937;28;20476;-71
2022/01/28 06:18:36;;;;;;;41.53;37.77;;;2.50;99.90;;;;;;5068050;28;20454;-71
2022/01/28 06:21:03;;;;;;;36.63;33.50;;;2.40;99.90;;;;;;5067508;28;20466;-71
2022/01/28 06:23:30;;;;;;;41.80;37.40;;;2.40;99.90;;;;;;5067273;28;20444;-69
2022/01/28 06:25:57;;;;;;;41.13;37.13;;;2.40;99.90;;;;;;5067406;28;20477;-70
2022/01/28 06:28:24;;;;;;;40.97;37.13;;;2.40;99.90;;;;;;5065218;28;20483;-70
2022/01/28 06:30:52;;;;;;;38.73;34.83;;;2.40;99.90;;;;;;5067832;28;20786;-70
2022/01/28 06:33:19;;;;;;;39.73;35.93;;;2.30;99.90;;;;;;5066062;28;20994;-71
2022/01/28 06:35:46;;;;;;;50.80;36.27;;;2.20;99.90;;;;;;5068307;28;20803;-70
2022/01/28 06:38:14;;;;;;;39.60;35.90;;;2.10;99.90;;;;;;5084137;28;20460;-70
2022/01/28 06:40:41;;;;;;;40.47;36.37;;;2.00;99.90;;;;;;5078204;28;20469;-69
2022/01/28 06:43:09;;;;;;;39.97;36.63;;;1.90;99.90;;;;;;5068034;28;20625;-70
2022/01/28 06:45:36;;;;;;;42.03;38.40;;;1.80;99.90;;;;;;5066994;28;20465;-71
2022/01/28 06:48:07;;;;;;;44.13;40.10;;;1.80;99.90;;;;;;5067262;28;20487;-70
2022/01/28 06:50:34;;;;;;;43.80;40.13;;;1.70;99.90;;;;;;5067644;28;20607;-69
2022/01/28 06:53:01;;;;;;;42.50;38.30;;;1.80;99.90;;;;;;5064101;28;20556;-71
2022/01/28 06:55:28;;;;;;;42.23;37.73;;;1.90;99.90;;;;;;5065696;28;20716;-72
2022/01/28 06:57:56;;;;;;;42.73;38.30;;;1.90;99.90;;;;;;5061341;28;20457;-70
2022/01/28 07:00:23;;;;;;;40.77;37.43;;;1.80;99.90;;;;;;5064202;28;20576;-71
2022/01/28 07:02:50;;;;;;;43.97;37.90;;;1.80;99.90;;;;;;5063108;28;20476;-71
2022/01/28 07:05:19;;;;;;;44.40;40.00;;;1.60;99.90;;;;;;5061794;28;20529;-70
2022/01/28 07:07:47;;;;;;;42.80;39.40;;;1.60;99.90;;;;;;5060632;28;20534;-69
2022/01/28 07:10:14;;;;;;;62.33;42.43;;;1.60;99.90;;;;;;5064011;28;20525;-71
2022/01/28 07:12:41;;;;;;;43.87;40.20;;;1.60;99.90;;;;;;5063174;28;20476;-70
2022/01/28 07:15:09;;;;;;;44.20;39.70;;;1.50;99.90;;;;;;5063691;28;20456;-70
2022/01/28 07:17:36;;;;;;;43.70;39.70;;;1.60;99.90;;;;;;5063404;28;20868;-71
2022/01/28 07:20:03;;;;;;;45.60;41.00;;;1.80;99.90;;;;;;5064976;28;20498;-71
2022/01/28 07:22:31;;;;;;;42.47;38.67;;;1.80;99.90;;;;;;5063392;27;20460;-71
2022/01/28 07:24:58;;;;;;;45.47;41.47;;;1.70;99.90;;;;;;5064766;28;21135;-71
2022/01/28 07:27:25;;;;;;;44.43;40.50;;;1.70;99.90;;;;;;5064331;28;20476;-69
2022/01/28 07:29:52;;;;;;;42.63;38.73;;;1.60;99.90;;;;;;5063878;28;20527;-70
2022/01/28 07:32:19;;;;;;;42.80;39.23;;;1.60;99.90;;;;;;5064452;28;20735;-71
2022/01/28 07:34:46;;;;;;;42.40;38.80;;;1.60;99.90;;;;;;5064602;28;20474;-70
2022/01/28 07:37:13;;;;;;;44.67;39.90;;;1.60;99.90;;;;;;5064512;28;22530;-70
2022/01/28 07:39:41;;;;;;;45.27;41.37;;;1.70;99.90;;;;;;5062344;28;20469;-71
2022/01/28 07:42:08;;;;;;;50.13;42.90;;;1.80;99.90;;;;;;5059653;28;20466;-71
2022/01/28 07:44:35;;;;;;;45.63;41.53;;;1.90;99.90;;;;;;5061102;28;20484;-70
2022/01/28 07:47:02;;;;;;;44.33;40.10;;;1.90;99.90;;;;;;5063526;28;21223;-71
2022/01/28 07:49:29;;;;;;;44.90;40.40;;;1.90;99.90;;;;;;5064288;28;20904;-70
2022/01/28 07:51:56;;;;;;;44.40;40.33;;;1.90;99.90;;;;;;5064565;28;20860;-70
2022/01/28 07:54:23;;;;;;;46.60;42.20;;;1.90;99.90;;;;;;5064233;28;20827;-71
2022/01/28 07:56:53;;;;;;;46.87;43.17;;;1.90;99.90;;;;;;5060870;28;20472;-69
2022/01/28 07:59:21;;;;;;;48.23;43.40;;;2.00;99.90;;;;;;5063750;28;20502;-72
2022/01/28 08:01:48;;;;;;;45.30;41.20;;;2.10;99.90;;;;;;5061592;28;20782;-70
2022/01/28 08:04:15;;;;;;;44.43;40.30;;;2.20;99.90;;;;;;5064489;28;20546;-70
2022/01/28 08:06:42;;;;;;;46.83;40.57;;;2.50;99.90;;;;;;5063191;28;20486;-71
2022/01/28 08:09:09;;;;;;;48.03;40.70;;;2.60;99.90;;;;;;5062889;28;20552;-69
2022/01/28 08:11:36;;;;;;;48.17;43.47;;;2.60;99.90;;;;;;5064013;28;20501;-70
2022/01/28 08:14:04;;;;;;;46.17;42.10;;;2.70;99.90;;;;;;5064524;28;20489;-71
2022/01/28 08:16:31;;;;;;;47.47;42.87;;;2.70;99.90;;;;;;5063790;28;21479;-71
2022/01/28 08:18:58;;;;;;;48.10;43.40;;;2.70;99.90;;;;;;5064147;28;21066;-71
2022/01/28 08:21:24;;;;;;;48.60;42.97;;;2.90;99.90;;;;;;5064299;28;20464;-71
2022/01/28 08:23:51;;;;;;;48.43;43.53;;;3.10;99.90;;;;;;5064250;28;20461;-71
2022/01/28 08:26:19;;;;;;;47.83;43.57;;;3.20;99.90;;;;;;5062634;28;20635;-70
2022/01/28 08:28:47;;;;;;;48.30;43.33;;;3.20;99.90;;;;;;5062692;28;20468;-70
2022/01/28 08:31:16;;;;;;;52.40;43.80;;;3.20;99.90;;;;;;5067002;28;20496;-71
2022/01/28 08:33:43;;;;;;;48.03;43.17;;;3.20;99.90;;;;;;5068464;28;20464;-71
2022/01/28 08:36:09;;;;;;;51.77;44.80;;;3.30;99.90;;;;;;5066412;28;21247;-70
2022/01/28 08:38:43;;;;;;;50.00;44.63;;;3.30;99.90;;;;;;5095255;28;20894;-71
2022/01/28 08:41:12;;;;;;;46.83;42.70;;;3.40;99.90;;;;;;5068078;28;20538;-71
2022/01/28 08:43:39;;;;;;;49.57;44.47;;;3.30;99.90;;;;;;5065834;28;20484;-71
2022/01/28 08:46:06;;;;;;;46.67;41.97;;;3.30;99.90;;;;;;5074756;28;20968;-69
2022/01/28 08:48:34;;;;;;;46.43;41.67;;;3.40;99.90;;;;;;5105990;28;20457;-72
2022/01/28 08:51:01;;;;;;;48.07;42.97;;;3.60;99.90;;;;;;5095223;28;20489;-70
2022/01/28 08:53:28;;;;;;;49.60;43.50;;;3.70;99.90;;;;;;5093736;28;20460;-71
2022/01/28 08:55:55;;;;;;;48.43;42.87;;;3.80;99.90;;;;;;5066781;28;20817;-71
2022/01/28 08:58:22;;;;;;;48.30;43.60;;;3.70;99.90;;;;;;5067610;28;20560;-72
2022/01/28 09:00:50;;;;;;;45.07;40.93;;;3.60;99.90;;;;;;5067757;28;20465;-70
2022/01/28 09:03:20;;;;;;;51.50;44.97;;;3.50;99.90;;;;;;5067436;28;21188;-70
2022/01/28 09:05:49;;;;;;;49.23;44.50;;;3.60;99.90;;;;;;5067989;28;20477;-71
2022/01/28 09:08:15;;;;;;;46.30;41.97;;;3.70;99.90;;;;;;5066967;28;20458;-71
2022/01/28 09:10:46;;;;;;;50.90;41.33;;;3.70;99.90;;;;;;5068036;28;20472;-71
2022/01/28 09:13:24;;;;;;;47.20;42.60;;;3.70;99.90;;;;;;5065588;28;20485;-71
2022/01/28 09:15:53;;;;;;;46.57;41.30;;;3.80;99.90;;;;;;5065864;28;20461;-71
2022/01/28 09:18:20;;;;;;;53.63;42.03;;;3.80;99.90;;;;;;5065429;28;20502;-69
2022/01/28 09:20:49;;;;;;;47.93;41.93;;;3.90;99.90;;;;;;5064990;28;20892;-70
2022/01/28 09:23:16;;;;;;;46.43;41.50;;;4.00;99.90;;;;;;5065584;28;20466;-72
2022/01/28 09:25:43;;;;;;;47.03;41.23;;;4.00;99.90;;;;;;5063497;28;21235;-70
2022/01/28 09:28:10;;;;;;;51.33;41.80;;;4.10;99.90;;;;;;5063303;28;20501;-71
2022/01/28 09:30:37;;;;;;;56.00;42.40;;;4.20;99.90;;;;;;5065588;27;21045;-69
2022/01/28 09:33:05;;;;;;;47.33;40.90;;;4.30;99.90;;;;;;5065777;28;20469;-71
2022/01/28 09:35:33;;;;;;;46.03;41.13;;;4.30;99.90;;;;;;5066555;28;20469;-70
2022/01/28 09:38:02;;;;;;;45.93;41.27;;;4.30;99.90;;;;;;5064730;28;20893;-71
2022/01/28 09:40:29;;;;;;;46.23;41.20;;;4.40;99.90;;;;;;5066432;28;22954;-69
2022/01/28 09:42:56;;;;;;;59.77;43.17;;;4.50;99.90;;;;;;5090737;28;20469;-70
2022/01/28 09:45:25;;;;;;;46.50;42.07;;;4.60;99.90;;;;;;5103416;28;21385;-69
2022/01/28 09:47:53;;;;;;;48.57;41.93;;;4.60;99.90;;;;;;5094054;28;20995;-71
2022/01/28 09:50:22;;;;;;;44.37;39.90;;;4.70;99.90;;;;;;5073531;28;20461;-71
2022/01/28 09:52:49;;;;;;;44.83;39.30;;;4.80;99.90;;;;;;5065067;28;20485;-70
2022/01/28 09:55:18;;;;;;;57.07;41.53;;;4.90;99.90;;;;;;5066626;28;20529;-72
2022/01/28 09:57:51;;;;;;;42.27;37.90;;;5.00;99.90;;;;;;5063455;28;20500;-71
2022/01/28 10:00:20;;;;;;;43.73;39.00;;;5.00;99.90;;;;;;5064770;28;20668;-71
2022/01/28 10:02:48;;;;;;;42.20;37.20;;;5.00;99.90;;;;;;5066188;28;20577;-71
2022/01/28 10:05:20;;;;;;;47.03;38.17;;;5.10;99.90;;;;;;5065605;28;20999;-69
2022/01/28 10:08:17;;;;;;;109.13;42.60;;;5.20;99.90;;;;;;5065586;28;20489;-71
2022/01/28 10:10:52;;;;;;;43.90;37.83;;;5.40;99.90;;;;;;5003193;28;20514;-71
2022/01/28 10:13:24;;;;;;;47.67;40.53;;;5.60;99.90;;;;;;5051905;28;20486;-71
2022/01/28 10:15:56;;;;;;;50.70;39.40;;;5.60;99.90;;;;;;5065319;28;20462;-71
2022/01/28 10:18:40;;;;;;;48.50;40.57;;;5.60;99.90;;;;;;5065564;28;20488;-71
2022/01/28 10:21:17;;;;;;;46.57;38.27;;;5.60;99.90;;;;;;5063535;28;20471;-71
2022/01/28 10:23:44;;;;;;;42.00;37.83;;;5.50;99.90;;;;;;5065867;28;22368;-71
2022/01/28 10:26:12;;;;;;;49.13;37.00;;;5.50;99.90;;;;;;5064289;28;20852;-70
2022/01/28 10:28:51;;;;;;;43.30;37.40;;;5.50;99.90;;;;;;5064730;28;20560;-71
2022/01/28 10:31:18;;;;;;;43.63;36.17;;;5.60;99.90;;;;;;5065424;28;22548;-71
2022/01/28 10:33:45;;;;;;;42.60;37.07;;;5.60;99.90;;;;;;5063854;28;20973;-70
2022/01/28 10:36:12;;;;;;;49.87;37.93;;;5.60;99.90;;;;;;5064353;28;21634;-71
2022/01/28 10:38:42;;;;;;;42.47;37.20;;;5.70;99.90;;;;;;5064219;28;20454;-69
2022/01/28 10:41:12;;;;;;;43.70;37.60;;;5.70;99.90;;;;;;5065410;28;20469;-70
2022/01/28 10:43:46;;;;;;;44.07;37.40;;;5.80;99.90;;;;;;5064518;28;20504;-69
2022/01/28 10:46:14;;;;;;;42.10;35.77;;;5.80;99.90;;;;;;5078014;28;20554;-71
2022/01/28 10:48:52;;;;;;;42.53;35.80;;;5.90;99.90;;;;;;5095213;28;20501;-70
2022/01/28 10:51:20;;;;;;;39.13;34.57;;;6.00;99.90;;;;;;5095430;28;20862;-70
2022/01/28 10:54:04;;;;;;;43.20;34.73;;;6.00;99.90;;;;;;5065693;28;20485;-70
2022/01/28 10:56:47;;;;;;;48.10;34.67;;;6.20;99.90;;;;;;5062321;27;20472;-71
2022/01/28 10:59:16;;;;;;;38.10;32.30;;;6.40;99.90;;;;;;5063702;28;20611;-71
2022/01/28 11:01:44;;;;;;;49.20;34.13;;;6.60;99.90;;;;;;5064598;28;20523;-71
2022/01/28 11:04:12;;;;;;;40.47;32.53;;;6.80;99.90;;;;;;5063844;28;21125;-71
2022/01/28 11:06:40;;;;;;;36.20;31.80;;;7.00;99.90;;;;;;5063335;28;21265;-71
2022/01/28 11:09:08;;;;;;;45.37;33.23;;;7.10;99.90;;;;;;5063779;28;20852;-70
2022/01/28 11:11:36;;;;;;;34.73;30.63;;;7.30;99.90;;;;;;5063580;28;20770;-69
2022/01/28 11:14:04;;;;;;;40.70;30.57;;;7.40;99.90;;;;;;5062549;28;20511;-71
2022/01/28 11:16:32;;;;;;;36.10;29.23;;;7.70;99.90;;;;;;5063348;28;20460;-69
2022/01/28 11:19:00;;;;;;;34.67;28.83;;;8.30;99.90;;;;;;5063046;28;20458;-71
2022/01/28 11:21:35;;;;;;;38.43;29.30;;;8.80;99.90;;;;;;5064350;28;20867;-70
2022/01/28 11:24:09;;;;;;;40.03;28.57;;;9.40;99.90;;;;;;5062706;28;20490;-70
2022/01/28 11:26:50;;;;;;;30.20;27.00;;;9.80;99.90;;;;;;5062100;28;20457;-71
2022/01/28 11:29:20;;;;;;;33.80;27.10;;;9.80;99.90;;;;;;5063644;28;20965;-71
2022/01/28 11:31:49;;;;;;;29.30;26.30;;;9.60;99.90;;;;;;5063878;28;20481;-69
2022/01/28 11:34:19;;;;;;;29.60;26.50;;;9.40;99.90;;;;;;5067583;27;20462;-69
2022/01/28 11:36:46;;;;;;;35.07;26.70;;;9.40;99.90;;;;;;5094940;28;20499;-69
2022/01/28 11:39:31;;;;;;;30.20;27.17;;;9.30;99.90;;;;;;5077985;28;20470;-70
2022/01/28 11:42:27;;;;;;;29.70;24.80;;;9.60;99.90;;;;;;5063870;27;20457;-70
2022/01/28 11:44:55;;;;;;;29.30;24.43;;;9.60;99.90;;;;;;5061112;28;21137;-70
2022/01/28 11:47:24;;;;;;;32.53;24.53;;;9.10;99.90;;;;;;5061525;28;21105;-70
2022/01/28 11:49:56;;;;;;;32.47;24.90;;;9.00;99.90;;;;;;5062361;28;20462;-70
2022/01/28 11:52:29;;;;;;;27.70;24.47;;;9.30;99.90;;;;;;5058426;28;20816;-70
2022/01/28 11:54:56;;;;;;;28.20;25.33;;;9.40;99.90;;;;;;5062809;28;20480;-70
2022/01/28 11:57:27;;;;;;;26.17;23.77;;;9.70;99.90;;;;;;5066152;28;20496;-69
2022/01/28 12:00:22;;;;;;;24.53;22.20;;;10.00;99.90;;;;;;5062668;28;20801;-68
2022/01/28 12:02:51;;;;;;;25.33;21.87;;;10.30;99.90;;;;;;5063718;28;20996;-70
2022/01/28 12:05:51;;;;;;;29.27;22.20;;;10.50;99.90;;;;;;5060120;28;20470;-69
2022/01/28 12:08:20;;;;;;;24.50;20.60;;;10.20;99.90;;;;;;5061515;28;20544;-69
2022/01/28 12:10:50;;;;;;;21.87;20.13;;;10.00;99.90;;;;;;5062915;28;20492;-69
2022/01/28 12:13:21;;;;;;;29.00;20.60;;;9.70;99.90;;;;;;5063035;28;20810;-70
2022/01/28 12:16:09;;;;;;;24.27;20.13;;;9.90;99.90;;;;;;5062582;28;20480;-70
2022/01/28 12:18:49;;;;;;;21.60;19.40;;;10.40;99.90;;;;;;5061967;28;20930;-70
2022/01/28 12:21:18;;;;;;;21.70;19.67;;;10.70;99.90;;;;;;5062750;28;20604;-69
2022/01/28 12:23:46;;;;;;;27.90;20.37;;;11.10;99.90;;;;;;5062551;28;22566;-68
2022/01/28 12:26:19;;;;;;;25.93;18.80;;;11.40;99.90;;;;;;5061315;28;20477;-69
2022/01/28 12:28:55;;;;;;;20.33;18.43;;;11.40;99.90;;;;;;5063359;28;20893;-69
2022/01/28 12:31:25;;;;;;;20.97;18.97;;;11.50;99.90;;;;;;5061514;28;20468;-71
2022/01/28 12:33:53;;;;;;;20.00;18.20;;;11.60;99.90;;;;;;5059735;28;21214;-69
2022/01/28 12:36:22;;;;;;;20.93;18.87;;;11.90;99.90;;;;;;5063635;28;20470;-70
2022/01/28 12:39:06;;;;;;;18.60;16.80;;;12.10;99.90;;;;;;5062470;28;20465;-69
2022/01/28 12:41:41;;;;;;;19.20;16.97;;;12.30;99.90;;;;;;5061199;28;20967;-70
2022/01/28 12:44:09;;;;;;;21.37;17.93;;;11.90;99.90;;;;;;5061319;28;20595;-69
2022/01/28 12:46:39;;;;;;;19.70;17.63;;;11.20;99.90;;;;;;5061464;28;20519;-69
2022/01/28 12:49:09;;;;;;;19.77;17.90;;;10.90;99.90;;;;;;5062225;28;20811;-69
2022/01/28 12:51:38;;;;;;;19.83;17.53;;;10.80;99.90;;;;;;5083524;28;20461;-69
2022/01/28 12:54:06;;;;;;;20.47;16.90;;;11.00;99.90;;;;;;5094005;28;21015;-69
2022/01/28 12:56:35;;;;;;;23.07;17.30;;;10.70;99.90;;;;;;5089761;28;21041;-69
2022/01/28 12:59:03;;;;;;;20.00;18.00;;;10.50;99.90;;;;;;5062284;28;20733;-69
2022/01/28 13:01:32;;;;;;;17.43;15.67;;;10.30;99.90;;;;;;5061631;28;20462;-71
2022/01/28 13:04:08;;;;;;;20.27;18.27;;;10.20;99.90;;;;;;5062201;28;20458;-69
2022/01/28 13:09:24;;;;;;;20.20;18.50;;;10.40;99.90;;;;;;5063320;28;20476;-70
2022/01/28 13:11:54;;;;;;;21.73;18.23;;;9.90;99.90;;;;;;5063253;28;20488;-70
2022/01/28 13:14:22;;;;;;;21.50;19.20;;;10.10;99.90;;;;;;5063798;28;20580;-71
2022/01/28 13:16:50;;;;;;;22.40;18.90;;;10.40;99.90;;;;;;5065403;28;20477;-71
2022/01/28 13:19:18;;;;;;;19.93;18.33;;;10.30;99.90;;;;;;5066247;28;21095;-70
2022/01/28 13:21:47;;;;;;;26.43;20.03;;;10.60;99.90;;;;;;5066710;28;20878;-70
2022/01/28 13:24:17;;;;;;;23.30;21.30;;;10.80;99.90;;;;;;5066230;28;20508;-69
2022/01/28 13:26:59;;;;;;;25.87;20.43;;;10.60;99.90;;;;;;5066729;28;21254;-69
2022/01/28 13:29:36;;;;;;;22.53;20.33;;;10.70;99.90;;;;;;5066406;28;20465;-69
2022/01/28 13:32:06;;;;;;;21.70;19.73;;;10.60;99.90;;;;;;5066012;28;20594;-69
2022/01/28 13:34:47;;;;;;;29.67;20.07;;;10.50;99.90;;;;;;5066364;28;20473;-69
2022/01/28 13:37:30;;;;;;;21.83;19.10;;;10.20;99.90;;;;;;5066691;28;21237;-70
2022/01/28 13:39:57;;;;;;;24.30;21.80;;;10.10;99.90;;;;;;5065424;28;20457;-71